Shell Fueler — WZW7217 — position and weather

sailwx.info

Track history (hours):
 
Tides and Currents Weather Stations Pressure Air Temp Water Temp Dewpoint Dewpoint Depression Visibility Wind Speed Wind Dir Waves Ship Positions

Shell Fueler

Owner: JOHN W STONE OIL DIST .LLC, GRETNA, LA. More information available from US FCC via Universal Licensing System and Coast Guard Vessel Documentation Center.

Last reported at 2015-Jan-30 10:23 UTC. Time now 2015-Jan-31 00:46 UTC.
Position N 29°45' W 091°36'.

Length 21 m; draft 2.5 m.

Type: Towing. MMSI: 366954210.

Date/timePositionNaut miles runAvg speedWind from/ knotsBaromVisibWave heightAir tempDewpointWater temp
2015-Jan-30 10:23N 29°45' W 091°36'6 6.7
2015-Jan-30 09:33N 29°42' W 091°31'6 6.3
2015-Jan-30 08:33N 29°39' W 091°24'3 3.4
2015-Jan-30 07:33N 29°38' W 091°21'0 0.0
2015-Jan-30 06:33N 29°38' W 091°21'0 0.0
2015-Jan-30 05:33N 29°38' W 091°21'0 0.0
2015-Jan-30 04:33N 29°38' W 091°21'0 0.0
2015-Jan-30 03:33N 29°38' W 091°21'1 0.7
2015-Jan-30 02:33N 29°38' W 091°20'5 5.3
2015-Jan-30 01:33N 29°40' W 091°14'3 3.3
2015-Jan-30 00:33N 29°41' W 091°10'4 3.6
2015-Jan-29 23:33N 29°39' W 091°07'5 4.6
2015-Jan-29 22:28N 29°37' W 091°02'4 4.4
2015-Jan-29 21:30N 29°35' W 090°58'32 3.9
2015-Jan-29 13:13N 29°37' W 090°21'8 2.7
2015-Jan-29 10:18N 29°40' W 090°12'5 4.8
2015-Jan-29 09:13N 29°44' W 090°09'3 3.9
2015-Jan-29 08:30N 29°46' W 090°06'3 2.6
2015-Jan-29 07:20N 29°48' W 090°04'3 3.7
2015-Jan-29 06:33N 29°51' W 090°04'3 3.3
2015-Jan-29 05:30N 29°54' W 090°05'2 2.0
2015-Jan-29 04:33N 29°56' W 090°03'0 0.4
2015-Jan-29 03:33N 29°55' W 090°04'0 0.0
2015-Jan-29 02:32N 29°55' W 090°04'0 0.0
2015-Jan-29 01:33N 29°55' W 090°04'3 2.7
2015-Jan-29 00:32N 29°57' W 090°01'3 3.5
2015-Jan-28 23:32N 29°55' W 089°57'  
2015-Jan-25 22:14N 29°54' W 089°54'8 8.6
2015-Jan-25 21:17N 29°58' W 090°03'2 2.7
2015-Jan-25 20:29N 29°55' W 090°04'0 0.0
2015-Jan-25 19:33N 29°55' W 090°04'0 0.2
2015-Jan-25 18:31N 29°56' W 090°03'0 0.0
2015-Jan-25 17:29N 29°56' W 090°03'0 0.2
2015-Jan-25 16:32N 29°55' W 090°04'0 0.0
2015-Jan-25 15:32N 29°55' W 090°04'0 0.0
2015-Jan-25 14:31N 29°55' W 090°04'0 0.0
2015-Jan-25 13:33N 29°55' W 090°04'0 0.0
2015-Jan-25 12:32N 29°55' W 090°04'0 0.0
2015-Jan-25 11:32N 29°55' W 090°04'0 0.0
2015-Jan-25 10:33N 29°55' W 090°04'0 0.0
2015-Jan-25 09:29N 29°55' W 090°04'0 0.0
2015-Jan-25 08:22N 29°55' W 090°04'0 0.2
2015-Jan-25 07:25N 29°55' W 090°04'0 0.0
2015-Jan-25 06:32N 29°55' W 090°04'  
2015-Jan-22 16:06N 29°55' W 090°04'0 0.0
2015-Jan-22 15:27N 29°55' W 090°04'0 0.0
2015-Jan-22 14:30N 29°55' W 090°04'0 0.0
2015-Jan-22 13:24N 29°55' W 090°04'0 0.0
2015-Jan-22 12:33N 29°55' W 090°04'0 0.0
2015-Jan-22 11:32N 29°55' W 090°04'0 0.0
2015-Jan-22 10:29N 29°55' W 090°04'0 0.3
2015-Jan-22 09:31N 29°56' W 090°04'3 3.1
2015-Jan-22 08:34N 29°56' W 090°00'0 0.3
2015-Jan-22 07:31N 29°56' W 089°60'0 0.0
2015-Jan-22 06:31N 29°56' W 089°60'0 0.0
2015-Jan-22 05:31N 29°56' W 089°60'0 0.0
2015-Jan-22 04:26N 29°56' W 089°60'0 0.0
2015-Jan-22 03:28N 29°56' W 089°60'0 0.4
2015-Jan-22 02:27N 29°56' W 090°00'0 0.4
2015-Jan-22 01:25N 29°56' W 089°60'0 0.1
2015-Jan-22 00:18N 29°56' W 089°60'8 0.6
2015-Jan-21 12:27N 29°57' W 090°09'2 1.7
2015-Jan-21 11:31N 29°55' W 090°08'4 4.0
2015-Jan-21 10:31N 29°55' W 090°04'1 0.9
2015-Jan-21 09:13N 29°57' W 090°03'3 2.8
2015-Jan-21 08:13N 29°56' W 090°00'0 0.1
2015-Jan-21 07:22N 29°56' W 090°00'1 0.6
2015-Jan-21 06:33N 29°56' W 089°60'0 0.0
2015-Jan-21 05:33N 29°56' W 089°60'0 0.2
2015-Jan-21 04:30N 29°56' W 089°59'4 3.9
2015-Jan-21 03:33N 29°55' W 090°04'0 0.0
2015-Jan-21 02:31N 29°55' W 090°04'0 0.0
2015-Jan-21 01:33N 29°55' W 090°04'0 0.0
2015-Jan-21 00:32N 29°55' W 090°04'1 1.3
2015-Jan-20 23:32N 29°57' W 090°03'0 0.0
2015-Jan-20 22:32N 29°57' W 090°03'1 1.1
2015-Jan-20 21:33N 29°57' W 090°02'3 1.4
2015-Jan-20 19:30N 29°56' W 089°59'3 2.0
2015-Jan-20 18:09N 29°57' W 090°02'0 0.1
2015-Jan-20 17:22N 29°57' W 090°02'  
Track history (hours):
 
Tides and Currents Weather Stations Pressure Air Temp Water Temp Dewpoint Dewpoint Depression Visibility Wind Speed Wind Dir Waves Ship Positions

Shell Fueler

Owner: JOHN W STONE OIL DIST .LLC, GRETNA, LA. More information available from US FCC via Universal Licensing System and Coast Guard Vessel Documentation Center.

Last reported at 2015-Jan-30 10:23 UTC. Time now 2015-Jan-31 00:46 UTC.
Position N 29°45' W 091°36'.

Length 21 m; draft 2.5 m.

Type: Towing. MMSI: 366954210.

Date/timePositionNaut miles runAvg speedWind from/ knotsBaromVisibWave heightAir tempDewpointWater temp
2015-Jan-30 10:23N 29°45' W 091°36'6 6.7
2015-Jan-30 09:33N 29°42' W 091°31'6 6.3
2015-Jan-30 08:33N 29°39' W 091°24'3 3.4
2015-Jan-30 07:33N 29°38' W 091°21'0 0.0
2015-Jan-30 06:33N 29°38' W 091°21'0 0.0
2015-Jan-30 05:33N 29°38' W 091°21'0 0.0
2015-Jan-30 04:33N 29°38' W 091°21'0 0.0
2015-Jan-30 03:33N 29°38' W 091°21'1 0.7
2015-Jan-30 02:33N 29°38' W 091°20'5 5.3
2015-Jan-30 01:33N 29°40' W 091°14'3 3.3
2015-Jan-30 00:33N 29°41' W 091°10'4 3.6
2015-Jan-29 23:33N 29°39' W 091°07'5 4.6
2015-Jan-29 22:28N 29°37' W 091°02'4 4.4
2015-Jan-29 21:30N 29°35' W 090°58'32 3.9
2015-Jan-29 13:13N 29°37' W 090°21'8 2.7
2015-Jan-29 10:18N 29°40' W 090°12'5 4.8
2015-Jan-29 09:13N 29°44' W 090°09'3 3.9
2015-Jan-29 08:30N 29°46' W 090°06'3 2.6
2015-Jan-29 07:20N 29°48' W 090°04'3 3.7
2015-Jan-29 06:33N 29°51' W 090°04'3 3.3
2015-Jan-29 05:30N 29°54' W 090°05'2 2.0
2015-Jan-29 04:33N 29°56' W 090°03'0 0.4
2015-Jan-29 03:33N 29°55' W 090°04'0 0.0
2015-Jan-29 02:32N 29°55' W 090°04'0 0.0
2015-Jan-29 01:33N 29°55' W 090°04'3 2.7
2015-Jan-29 00:32N 29°57' W 090°01'3 3.5
2015-Jan-28 23:32N 29°55' W 089°57'  
2015-Jan-25 22:14N 29°54' W 089°54'8 8.6
2015-Jan-25 21:17N 29°58' W 090°03'2 2.7
2015-Jan-25 20:29N 29°55' W 090°04'0 0.0
2015-Jan-25 19:33N 29°55' W 090°04'0 0.2
2015-Jan-25 18:31N 29°56' W 090°03'0 0.0
2015-Jan-25 17:29N 29°56' W 090°03'0 0.2
2015-Jan-25 16:32N 29°55' W 090°04'0 0.0
2015-Jan-25 15:32N 29°55' W 090°04'0 0.0
2015-Jan-25 14:31N 29°55' W 090°04'0 0.0
2015-Jan-25 13:33N 29°55' W 090°04'0 0.0
2015-Jan-25 12:32N 29°55' W 090°04'0 0.0
2015-Jan-25 11:32N 29°55' W 090°04'0 0.0
2015-Jan-25 10:33N 29°55' W 090°04'0 0.0
2015-Jan-25 09:29N 29°55' W 090°04'0 0.0
2015-Jan-25 08:22N 29°55' W 090°04'0 0.2
2015-Jan-25 07:25N 29°55' W 090°04'0 0.0
2015-Jan-25 06:32N 29°55' W 090°04'  
2015-Jan-22 16:06N 29°55' W 090°04'0 0.0
2015-Jan-22 15:27N 29°55' W 090°04'0 0.0
2015-Jan-22 14:30N 29°55' W 090°04'0 0.0
2015-Jan-22 13:24N 29°55' W 090°04'0 0.0
2015-Jan-22 12:33N 29°55' W 090°04'0 0.0
2015-Jan-22 11:32N 29°55' W 090°04'0 0.0
2015-Jan-22 10:29N 29°55' W 090°04'0 0.3
2015-Jan-22 09:31N 29°56' W 090°04'3 3.1
2015-Jan-22 08:34N 29°56' W 090°00'0 0.3
2015-Jan-22 07:31N 29°56' W 089°60'0 0.0
2015-Jan-22 06:31N 29°56' W 089°60'0 0.0
2015-Jan-22 05:31N 29°56' W 089°60'0 0.0
2015-Jan-22 04:26N 29°56' W 089°60'0 0.0
2015-Jan-22 03:28N 29°56' W 089°60'0 0.4
2015-Jan-22 02:27N 29°56' W 090°00'0 0.4
2015-Jan-22 01:25N 29°56' W 089°60'0 0.1
2015-Jan-22 00:18N 29°56' W 089°60'8 0.6
2015-Jan-21 12:27N 29°57' W 090°09'2 1.7
2015-Jan-21 11:31N 29°55' W 090°08'4 4.0
2015-Jan-21 10:31N 29°55' W 090°04'1 0.9
2015-Jan-21 09:13N 29°57' W 090°03'3 2.8
2015-Jan-21 08:13N 29°56' W 090°00'0 0.1
2015-Jan-21 07:22N 29°56' W 090°00'1 0.6
2015-Jan-21 06:33N 29°56' W 089°60'0 0.0
2015-Jan-21 05:33N 29°56' W 089°60'0 0.2
2015-Jan-21 04:30N 29°56' W 089°59'4 3.9
2015-Jan-21 03:33N 29°55' W 090°04'0 0.0
2015-Jan-21 02:31N 29°55' W 090°04'0 0.0
2015-Jan-21 01:33N 29°55' W 090°04'0 0.0
2015-Jan-21 00:32N 29°55' W 090°04'1 1.3
2015-Jan-20 23:32N 29°57' W 090°03'0 0.0
2015-Jan-20 22:32N 29°57' W 090°03'1 1.1
2015-Jan-20 21:33N 29°57' W 090°02'3 1.4
2015-Jan-20 19:30N 29°56' W 089°59'3 2.0
2015-Jan-20 18:09N 29°57' W 090°02'0 0.1
2015-Jan-20 17:22N 29°57' W 090°02'  

Dump ship's entire track history